Bob Hope Airport

Airport
ICAO code: 
KBUR
IATA Code: 
BUR
Summary
ICAO Region: 
NAM
Territory: 
Location: 
Burbank, California
Serving: 
Los Angeles
Elevation: 
778 ft
Coordinates: 
Aerial View: 
34° 12' 2.002" N, 118° 21' 29.999" W
Airport RE: 
Engineered Materials Arresting System
Metar
Observation
KBUR 280153Z 36003KT 10SM CLR 20/M05 A3009 RMK AO2 SLP181 T02001050
Station
Burbank, Burbank-Glendale-Pasadena Airport
Date/Time
2021-11-28 01:53:00
Wind direction
360°
Wind speed
03 kts
Lowest cloud amount
n/a
Temperature
20°C
Dew point
-5°C
Humidity
18%
Weather condition
n/a

Bob Hope Airport, is a public airport located 5 km northwest of the central business district of Burbank, a city in Los Angeles County, California, United States.

Climatology

Mediterranean climate or Dry-Summer Subtropical climate(Köppen climate classification Csa)

Runways

Designator Length Width Surface Rops
8/26 1768 46 ASP Yes/Yes
15/33 2099 46 ASP Yes/Yes
Airport map: 
Aerial View: 

Accidents and Serious Incidents at or in the vicinity of KBUR

SKYbrary Partners:

Safety knowledge contributed by: